Time;durP1;ratioP1;P1;durP2;ratioP2;P2;SDS_P1;SDS_P2;PMS_P1;PMS_P2;Temp;Humidity;BMP_temperature;BMP_pressure;BME280_temperature;BME280_humidity;BME280_pressure;Samples;Min_cycle;Max_cycle;Signal;HPM_P1;HPM_P2
2021/10/28 00:13:55;;;;;;;1.55;1.27;;;;;;;-145.06;100.00;60892.56;4910259;28;20020;-88
2021/10/28 00:16:34;;;;;;;1.60;1.10;;;;;;;-145.06;100.00;60892.56;4905290;28;20055;-86
2021/10/28 00:19:13;;;;;;;1.55;0.93;;;;;;;-145.06;100.00;60892.56;4898057;28;20477;-86
2021/10/28 00:21:52;;;;;;;1.35;0.90;;;;;;;-145.06;100.00;60892.56;4901143;28;20036;-86
2021/10/28 00:24:32;;;;;;;1.85;1.30;;;;;;;-145.06;100.00;60892.56;4890505;28;20052;-87
2021/10/28 00:27:11;;;;;;;1.40;1.25;;;;;;;-145.06;100.00;60892.56;4892167;28;20366;-87
2021/10/28 00:29:50;;;;;;;1.30;0.95;;;;;;;-145.06;100.00;60892.56;4891473;28;20071;-88
2021/10/28 00:32:29;;;;;;;1.30;1.10;;;;;;;8.49;100.00;60892.56;4894081;28;20031;-87
2021/10/28 00:35:09;;;;;;;1.47;1.10;;;;;;;-145.06;100.00;60892.56;4904205;28;20027;-88
2021/10/28 00:37:49;;;;;;;1.48;1.10;;;;;;;-145.06;100.00;60892.56;4915731;28;20032;-85
2021/10/28 00:40:27;;;;;;;;;;;;;;;-145.06;100.00;60892.56;4900832;28;20028;-88
2021/10/28 00:43:07;;;;;;;0.90;0.85;;;;;;;-145.06;100.00;60892.56;4902624;28;20237;-86
2021/10/28 00:45:52;;;;;;;1.20;1.00;;;;;;;-145.06;100.00;60892.56;4901700;28;20040;-88
2021/10/28 00:48:31;;;;;;;1.55;1.23;;;;;;;-145.06;100.00;60892.56;4921665;28;20028;-86
2021/10/28 00:51:11;;;;;;;2.22;1.30;;;;;;;9.38;100.00;60892.56;4887350;28;20027;-88
2021/10/28 00:53:52;;;;;;;1.38;1.23;;;;;;;-145.06;100.00;60892.56;4894888;28;20513;-87
2021/10/28 00:56:32;;;;;;;1.20;0.90;;;;;;;187.52;100.00;60892.56;4897084;28;20055;-86
2021/10/28 00:59:12;;;;;;;1.30;1.10;;;;;;;-145.06;100.00;60892.56;4897441;28;20032;-87
2021/10/28 01:01:51;;;;;;;;;;;;;;;-145.06;100.00;60892.56;4895967;28;20124;-86
2021/10/28 01:04:31;;;;;;;1.20;0.83;;;;;;;-145.06;100.00;60892.56;4918825;28;20238;-87
2021/10/28 01:07:10;;;;;;;1.17;0.98;;;;;;;8.08;100.00;60892.56;4910848;28;20032;-88
2021/10/28 01:09:49;;;;;;;1.25;1.00;;;;;;;7.99;100.00;60892.56;4894947;28;20363;-87
2021/10/28 01:12:28;;;;;;;0.90;0.70;;;;;;;7.96;100.00;60892.56;4894068;28;20028;-88
2021/10/28 01:15:12;;;;;;;0.80;0.70;;;;;;;7.96;100.00;60892.56;4909602;28;20016;-88
2021/10/28 01:17:50;;;;;;;0.85;0.70;;;;;;;-145.06;100.00;60892.56;4897209;28;20277;-88
2021/10/28 01:20:30;;;;;;;0.73;0.73;;;;;;;-145.06;100.00;60892.56;4913127;28;20039;-87
2021/10/28 01:23:11;;;;;;;1.10;0.90;;;;;;;-145.06;100.00;60892.56;4893928;28;20024;-88
2021/10/28 01:25:59;;;;;;;0.80;0.70;;;;;;;21.08;100.00;60892.56;4896942;28;20032;-87
2021/10/28 01:28:49;;;;;;;0.85;0.70;;;;;;;7.78;100.00;60892.56;4880238;28;20032;-86
2021/10/28 01:31:31;;;;;;;0.70;0.65;;;;;;;-145.06;100.00;60892.56;4884544;28;20032;-87
2021/10/28 01:34:10;;;;;;;0.57;0.57;;;;;;;-145.06;100.00;60892.56;4906235;28;20043;-88
2021/10/28 01:36:49;;;;;;;0.60;0.60;;;;;;;-145.06;100.00;60892.56;4899962;28;20369;-88
2021/10/28 01:39:29;;;;;;;0.82;0.70;;;;;;;-145.06;100.00;60892.56;4899941;28;20059;-87
2021/10/28 01:42:09;;;;;;;;;;;;;;;-145.06;100.00;60892.56;4896631;28;20036;-88
2021/10/28 01:44:48;;;;;;;0.63;0.60;;;;;;;-145.06;100.00;60892.56;4907060;28;20261;-87
2021/10/28 01:47:27;;;;;;;0.83;0.60;;;;;;;-145.06;100.00;60892.56;4900842;28;20099;-87
2021/10/28 01:50:08;;;;;;;1.27;0.70;;;;;;;-145.06;100.00;60892.56;4899839;28;20374;-87
2021/10/28 01:52:47;;;;;;;0.60;0.60;;;;;;;-145.06;100.00;60892.56;4899054;28;20286;-87
2021/10/28 01:55:26;;;;;;;0.63;0.63;;;;;;;-145.06;100.00;60892.56;4893977;28;20028;-87
2021/10/28 01:58:06;;;;;;;3.10;0.80;;;;;;;-145.06;100.00;60892.56;4902849;28;20102;-87
2021/10/28 02:00:46;;;;;;;0.60;0.60;;;;;;;-145.06;100.00;60892.56;4931386;28;20028;-89
2021/10/28 02:03:26;;;;;;;1.52;0.85;;;;;;;187.52;100.00;60892.56;4901534;28;20040;-88
2021/10/28 02:06:05;;;;;;;1.00;0.90;;;;;;;-145.06;100.00;60892.56;4900185;28;20047;-87
2021/10/28 02:08:43;;;;;;;0.82;0.70;;;;;;;-145.06;100.00;60892.56;4893549;28;20028;-87
2021/10/28 02:11:22;;;;;;;0.90;0.80;;;;;;;-145.06;100.00;60892.56;4897257;28;20032;-87
2021/10/28 02:14:02;;;;;;;0.98;0.75;;;;;;;-145.06;100.00;60892.56;4899962;28;20679;-89
2021/10/28 02:16:41;;;;;;;0.60;0.60;;;;;;;-145.06;100.00;60892.56;4898818;28;20023;-87
2021/10/28 02:19:20;;;;;;;0.75;0.63;;;;;;;-145.06;100.00;60892.56;4915308;28;20028;-88
2021/10/28 02:21:59;;;;;;;0.70;0.70;;;;;;;-145.06;100.00;60892.56;4894495;28;20354;-86
2021/10/28 02:24:38;;;;;;;0.60;0.60;;;;;;;-145.06;100.00;60892.56;4911904;28;20024;-87
2021/10/28 02:27:17;;;;;;;0.80;0.70;;;;;;;10.68;100.00;60892.56;4902881;28;20052;-87
2021/10/28 02:29:56;;;;;;;1.03;0.60;;;;;;;-145.06;100.00;60892.56;4915016;28;20151;-86
2021/10/28 02:32:35;;;;;;;0.52;0.50;;;;;;;-145.06;100.00;60892.56;4892650;28;20338;-87
2021/10/28 02:35:15;;;;;;;1.08;0.85;;;;;;;-145.06;100.00;60892.56;4897427;28;20063;-87
2021/10/28 02:37:54;;;;;;;1.13;0.60;;;;;;;-145.06;100.00;60892.56;4908606;28;20051;-89
2021/10/28 02:40:33;;;;;;;0.70;0.70;;;;;;;-145.06;100.00;60892.56;4896911;28;20032;-88
2021/10/28 02:43:12;;;;;;;1.67;0.75;;;;;;;-145.06;100.00;60892.56;4915255;28;20016;-88
2021/10/28 02:45:51;;;;;;;1.05;0.90;;;;;;;-145.06;100.00;60892.56;4920965;28;20596;-87
2021/10/28 02:48:30;;;;;;;1.70;0.70;;;;;;;-145.06;100.00;60892.56;4910124;28;20040;-87
2021/10/28 02:51:10;;;;;;;0.73;0.73;;;;;;;-145.06;100.00;60892.56;4896984;28;20417;-88
2021/10/28 02:53:48;;;;;;;1.30;0.90;;;;;;;-145.06;100.00;60892.56;4894404;28;20028;-87
2021/10/28 02:56:27;;;;;;;1.70;1.00;;;;;;;-145.06;100.00;60892.56;4907398;28;20036;-86
2021/10/28 02:59:06;;;;;;;0.77;0.70;;;;;;;-145.06;100.00;60892.56;4894590;28;20440;-87
2021/10/28 03:01:48;;;;;;;1.48;0.88;;;;;;;-145.06;100.00;60892.56;4911966;28;20347;-88
2021/10/28 03:04:28;;;;;;;1.35;0.90;;;;;;;-145.06;100.00;60892.56;4914527;28;20343;-88
2021/10/28 03:07:07;;;;;;;0.90;0.80;;;;;;;-145.06;100.00;60892.56;4895316;28;20363;-88
2021/10/28 03:09:46;;;;;;;0.97;0.70;;;;;;;-145.06;100.00;60892.56;4898210;28;20446;-87
2021/10/28 03:12:25;;;;;;;1.00;0.70;;;;;;;-145.06;100.00;60892.56;4893677;28;20262;-87
2021/10/28 03:15:06;;;;;;;1.07;0.80;;;;;;;-145.06;100.00;60892.56;4913799;28;20787;-88
2021/10/28 03:18:07;;;;;;;1.17;0.80;;;;;;;187.52;100.00;60892.56;4898370;28;20028;-88
2021/10/28 03:26:40;;;;;;;1.17;0.70;;;;;;;-145.06;100.00;60892.56;4908031;28;20032;-88
2021/10/28 03:29:19;;;;;;;0.70;0.70;;;;;;;-145.06;100.00;60892.56;4897651;28;20465;-87
2021/10/28 03:31:58;;;;;;;0.82;0.70;;;;;;;-145.06;100.00;60892.56;4889264;28;20111;-88
2021/10/28 03:34:37;;;;;;;0.90;0.70;;;;;;;-145.06;100.00;60892.56;4898582;28;20024;-87
2021/10/28 03:37:22;;;;;;;1.02;0.80;;;;;;;-145.06;100.00;60892.56;4894685;28;20032;-87
2021/10/28 03:57:48;;;;;;;0.68;0.60;;;;;;;6.70;100.00;60892.56;4912388;28;20024;-86
2021/10/28 04:18:30;;;;;;;0.90;0.70;;;;;;;6.79;100.00;60892.56;4909722;28;20452;-87
2021/10/28 04:30:08;;;;;;;0.70;0.70;;;;;;;187.52;100.00;60892.56;4862311;28;20036;-87
2021/10/28 04:32:48;;;;;;;;;;;;;;;6.54;100.00;60892.56;4908216;28;20016;-87
2021/10/28 04:35:27;;;;;;;1.15;0.80;;;;;;;-145.06;100.00;60892.56;4895246;28;19916;-88
2021/10/28 04:38:06;;;;;;;1.15;0.90;;;;;;;-145.06;100.00;60892.56;4895743;28;20039;-88
2021/10/28 04:40:45;;;;;;;1.05;0.95;;;;;;;10.68;100.00;60892.56;4908948;28;20032;-87
2021/10/28 04:43:24;;;;;;;1.63;1.20;;;;;;;-145.06;100.00;60892.56;4899962;28;20111;-88
2021/10/28 04:46:04;;;;;;;1.40;1.00;;;;;;;21.08;100.00;60892.56;4916850;28;20286;-87
2021/10/28 04:48:43;;;;;;;4.70;1.45;;;;;;;-145.06;100.00;60892.56;4916538;28;20067;-87
2021/10/28 04:51:22;;;;;;;2.17;1.33;;;;;;;-145.06;100.00;60892.56;4897489;28;20533;-88
2021/10/28 04:54:01;;;;;;;1.67;1.30;;;;;;;-145.06;100.00;60892.56;4896091;28;20346;-88
2021/10/28 04:56:40;;;;;;;2.22;1.58;;;;;;;10.68;100.00;60892.56;4895867;28;20075;-87
2021/10/28 04:59:19;;;;;;;2.20;1.60;;;;;;;10.68;100.00;60892.56;4908632;28;20031;-88
2021/10/28 05:01:58;;;;;;;2.27;1.53;;;;;;;-145.06;100.00;60892.56;4892792;28;20028;-87
2021/10/28 05:04:37;;;;;;;1.40;1.25;;;;;;;-145.06;100.00;60892.56;4912749;28;20036;-89
2021/10/28 05:07:17;;;;;;;2.08;1.77;;;;;;;-145.06;100.00;60892.56;4900099;28;20298;-88
2021/10/28 05:09:56;;;;;;;1.77;1.40;;;;;;;-145.06;100.00;60892.56;4900320;28;20024;-87
2021/10/28 05:12:35;;;;;;;1.90;1.60;;;;;;;-145.06;100.00;60892.56;4910854;28;20255;-88
2021/10/28 05:15:13;;;;;;;1.97;1.60;;;;;;;-145.06;100.00;60892.56;4896938;28;20099;-88
2021/10/28 05:17:52;;;;;;;2.47;1.80;;;;;;;-145.06;100.00;60892.56;4916462;28;20111;-88
2021/10/28 05:20:31;;;;;;;1.80;1.50;;;;;;;-145.06;100.00;60892.56;4901266;28;20461;-89
2021/10/28 05:23:11;;;;;;;1.67;1.40;;;;;;;-145.06;100.00;60892.56;4914887;28;20366;-87
2021/10/28 05:25:50;;;;;;;1.88;1.30;;;;;;;-145.06;100.00;60892.56;4898599;28;20301;-89
2021/10/28 05:28:30;;;;;;;1.97;1.20;;;;;;;7.56;100.00;60892.56;4899504;28;20020;-89
2021/10/28 05:31:09;;;;;;;1.98;1.42;;;;;;;-145.06;100.00;60892.56;4901180;28;20267;-87
2021/10/28 05:33:48;;;;;;;1.52;1.27;;;;;;;-145.06;100.00;60892.56;4899740;28;20063;-89
2021/10/28 05:36:27;;;;;;;;;;;;;;;-145.06;100.00;60892.56;4894466;28;20024;-87
2021/10/28 05:39:07;;;;;;;1.17;0.90;;;;;;;8.06;100.00;60892.56;4902292;28;19908;-88
2021/10/28 05:41:47;;;;;;;1.65;1.40;;;;;;;-145.06;100.00;60892.56;4902655;28;20024;-88
2021/10/28 05:44:26;;;;;;;1.38;1.27;;;;;;;-145.06;100.00;60892.56;4901898;28;20115;-87
2021/10/28 05:47:05;;;;;;;1.43;1.10;;;;;;;-145.06;100.00;60892.56;4898119;28;20040;-88
2021/10/28 05:49:43;;;;;;;1.40;1.30;;;;;;;-145.06;100.00;60892.56;4901415;28;20266;-89
2021/10/28 05:52:24;;;;;;;2.25;1.45;;;;;;;-145.06;100.00;60892.56;4892861;28;20028;-87
2021/10/28 05:55:04;;;;;;;1.85;1.30;;;;;;;-145.06;100.00;60892.56;4897394;28;20016;-87
2021/10/28 05:57:43;;;;;;;2.88;1.88;;;;;;;-145.06;100.00;60892.56;4893860;28;20028;-87
2021/10/28 06:00:25;;;;;;;2.20;1.63;;;;;;;-145.06;100.00;60892.56;4913096;28;20062;-88
2021/10/28 06:03:03;;;;;;;2.95;1.85;;;;;;;-145.06;100.00;60892.56;4895289;28;20314;-86
2021/10/28 06:05:42;;;;;;;2.40;1.67;;;;;;;-145.06;100.00;60892.56;4908201;28;20139;-87
2021/10/28 06:08:21;;;;;;;2.33;1.40;;;;;;;-145.06;100.00;60892.56;4918935;28;20028;-88
2021/10/28 06:11:00;;;;;;;2.23;1.50;;;;;;;-145.06;100.00;60892.56;4901561;28;20032;-89
2021/10/28 06:13:44;;;;;;;2.30;1.60;;;;;;;-145.06;100.00;60892.56;4895205;28;20309;-88
2021/10/28 06:16:26;;;;;;;2.80;2.00;;;;;;;-145.06;100.00;60892.56;4898824;28;20473;-87
2021/10/28 06:19:05;;;;;;;2.10;1.40;;;;;;;-145.06;100.00;60892.56;4902149;28;20028;-88
2021/10/28 06:21:44;;;;;;;3.17;2.03;;;;;;;-145.06;100.00;60892.56;4910086;28;20119;-87
2021/10/28 06:24:23;;;;;;;2.00;1.58;;;;;;;-145.06;100.00;60892.56;4896765;28;20020;-88
2021/10/28 06:27:02;;;;;;;3.20;2.17;;;;;;;8.00;100.00;60892.56;4897332;28;20028;-89
2021/10/28 06:29:41;;;;;;;;;;;;;;;-145.06;100.00;60892.56;4897474;28;20027;-87
2021/10/28 06:32:21;;;;;;;2.20;1.50;;;;;;;-145.06;100.00;60892.56;4898852;28;19907;-87
2021/10/28 06:35:03;;;;;;;1.75;1.38;;;;;;;-145.06;100.00;60892.56;4913543;28;20397;-88
2021/10/28 06:37:47;;;;;;;2.75;1.50;;;;;;;-145.06;100.00;60892.56;4913203;28;20031;-88
2021/10/28 06:40:26;;;;;;;2.42;1.80;;;;;;;-145.06;100.00;60892.56;4921429;28;20055;-87
2021/10/28 06:43:05;;;;;;;2.63;1.83;;;;;;;-145.06;100.00;60892.56;4899420;28;20028;-87
2021/10/28 06:45:44;;;;;;;3.47;1.90;;;;;;;-145.06;100.00;60892.56;4896502;28;20039;-86
2021/10/28 06:48:24;;;;;;;3.47;2.00;;;;;;;-145.06;100.00;60892.56;4912274;28;20047;-88
2021/10/28 06:51:03;;;;;;;3.90;2.20;;;;;;;-145.06;100.00;60892.56;4898095;28;20266;-88
2021/10/28 06:53:54;;;;;;;5.18;2.95;;;;;;;-145.06;100.00;60892.56;4917211;28;20040;-87
2021/10/28 06:56:53;;;;;;;4.07;2.28;;;;;;;-145.06;100.00;60892.56;4902195;28;20028;-88
2021/10/28 07:02:33;;;;;;;5.15;2.78;;;;;;;-145.06;100.00;60892.56;4919934;28;20023;-87
2021/10/28 07:05:12;;;;;;;3.20;2.10;;;;;;;-145.06;100.00;60892.56;4889506;28;20024;-88
2021/10/28 07:07:51;;;;;;;4.03;2.35;;;;;;;-145.06;100.00;60892.56;4898257;28;20036;-87
2021/10/28 07:10:31;;;;;;;3.40;1.90;;;;;;;-145.06;100.00;60892.56;4894990;28;20032;-87
2021/10/28 07:13:18;;;;;;;2.88;1.90;;;;;;;-145.06;100.00;60892.56;4894731;28;20028;-87
2021/10/28 07:16:26;;;;;;;2.70;1.52;;;;;;;-145.06;100.00;60892.56;4899081;28;20032;-87
2021/10/28 07:19:09;;;;;;;2.15;1.38;;;;;;;-145.06;100.00;60892.56;4906609;28;20028;-88
2021/10/28 07:31:21;;;;;;;2.13;1.50;;;;;;;-145.06;100.00;60892.56;4930492;28;20027;-88
2021/10/28 07:58:08;;;;;;;1.88;1.35;;;;;;;-145.06;100.00;60892.56;4911024;28;20119;-88
2021/10/28 08:29:35;;;;;;;2.20;1.43;;;;;;;-145.06;100.00;60892.56;4910185;28;20040;-88
2021/10/28 08:32:15;;;;;;;1.85;1.27;;;;;;;9.08;100.00;60892.56;4900344;28;20032;-89
2021/10/28 08:34:57;;;;;;;1.73;1.02;;;;;;;9.16;100.00;60892.56;4902122;28;20028;-88
2021/10/28 08:37:46;;;;;;;1.70;1.40;;;;;;;9.23;100.00;60892.56;4908613;28;20440;-88
2021/10/28 08:40:26;;;;;;;1.90;1.25;;;;;;;9.38;100.00;60892.56;4897284;28;20023;-88
2021/10/28 08:43:05;;;;;;;2.65;1.73;;;;;;;-145.06;100.00;60892.56;4896178;28;20044;-87
2021/10/28 08:45:45;;;;;;;2.08;1.38;;;;;;;-145.06;100.00;60892.56;4897657;28;20332;-88
2021/10/28 08:48:27;;;;;;;1.13;1.00;;;;;;;-145.06;100.00;60892.56;4894731;28;20370;-88
2021/10/28 08:51:28;;;;;;;1.48;1.35;;;;;;;-145.06;100.00;60892.56;4913677;28;20024;-87
2021/10/28 08:57:09;;;;;;;2.30;1.50;;;;;;;-145.06;100.00;60892.56;4912459;28;20024;-87
2021/10/28 09:00:19;;;;;;;2.40;1.40;;;;;;;-145.06;100.00;60892.56;4911367;28;20346;-89
2021/10/28 09:30:07;;;;;;;3.15;1.98;;;;;;;-145.06;100.00;60892.56;4909321;28;20028;-88
2021/10/28 09:32:52;;;;;;;2.10;1.63;;;;;;;-145.06;100.00;60892.56;4903522;28;20035;-88
2021/10/28 09:47:50;;;;;;;2.75;1.67;;;;;;;187.52;100.00;60892.56;4907639;28;20027;-88
2021/10/28 09:50:38;;;;;;;2.17;1.52;;;;;;;-145.06;100.00;60892.56;4899035;28;20556;-88
2021/10/28 09:59:06;;;;;;;2.15;1.60;;;;;;;14.24;100.00;60892.56;4914829;28;20032;-88
2021/10/28 10:01:46;;;;;;;2.20;1.70;;;;;;;-145.06;100.00;60892.56;4896371;28;20024;-88
2021/10/28 10:04:28;;;;;;;3.15;1.60;;;;;;;-145.06;100.00;60892.56;4901608;28;20019;-88
2021/10/28 10:07:09;;;;;;;2.05;1.50;;;;;;;-145.06;100.00;60892.56;4913100;28;20059;-89
2021/10/28 10:09:48;;;;;;;1.73;1.48;;;;;;;-145.06;100.00;60892.56;4892302;28;20047;-88
2021/10/28 10:12:28;;;;;;;2.35;1.92;;;;;;;-145.06;100.00;60892.56;4912765;28;20032;-87
2021/10/28 10:15:07;;;;;;;;;;;;;;;-145.06;100.00;60892.56;4900688;28;20024;-88
2021/10/28 10:17:52;;;;;;;2.13;1.20;;;;;;;-145.06;100.00;60892.56;4898853;28;19908;-87
2021/10/28 10:20:43;;;;;;;2.22;1.70;;;;;;;15.80;100.00;60892.56;4923332;28;20036;-88
2021/10/28 11:33:11;;;;;;;1.25;0.90;;;;;;;19.78;100.00;60892.56;4915228;28;19912;-89
2021/10/28 12:45:47;;;;;;;3.95;1.38;;;;;;;19.57;100.00;60892.56;4909037;28;20020;-88
2021/10/28 12:52:03;;;;;;;2.72;1.50;;;;;;;21.08;100.00;60892.56;4913061;28;20114;-88
2021/10/28 15:28:17;;;;;;;1.58;0.80;;;;;;;18.48;100.00;60892.56;4908896;28;20024;-90
2021/10/28 15:40:12;;;;;;;1.60;0.80;;;;;;;-145.06;100.00;60892.56;4882153;28;20063;-88
2021/10/28 15:43:20;;;;;;;0.63;0.63;;;;;;;-145.06;100.00;60892.56;4893307;28;20028;-89
2021/10/28 15:52:51;;;;;;;1.27;0.77;;;;;;;-145.06;100.00;60892.56;4905422;28;20024;-88
2021/10/28 16:24:31;;;;;;;0.60;0.60;;;;;;;-145.06;100.00;60892.56;4905159;28;20024;-87
2021/10/28 16:27:11;;;;;;;0.90;0.50;;;;;;;21.08;100.00;60892.56;4887354;28;20166;-87
2021/10/28 16:29:51;;;;;;;1.10;0.90;;;;;;;-145.06;100.00;60892.56;4893280;28;20032;-87
2021/10/28 16:32:31;;;;;;;1.00;0.70;;;;;;;-145.06;100.00;60892.56;4888377;28;20036;-87
2021/10/28 16:35:11;;;;;;;1.05;0.73;;;;;;;17.18;100.00;60892.56;4887058;28;20032;-88
2021/10/28 16:37:51;;;;;;;1.70;0.90;;;;;;;-145.06;100.00;60892.56;4889008;28;20369;-88
2021/10/28 16:40:30;;;;;;;0.90;0.70;;;;;;;-145.06;100.00;60892.56;4887614;28;20040;-87
2021/10/28 16:43:09;;;;;;;1.15;0.98;;;;;;;18.48;100.00;60892.56;4892327;28;20051;-89
2021/10/28 16:45:48;;;;;;;1.35;1.00;;;;;;;-145.06;100.00;60892.56;4901065;28;20342;-87
2021/10/28 16:48:27;;;;;;;0.75;0.55;;;;;;;-145.06;100.00;60892.56;4906092;28;20023;-88
2021/10/28 16:51:06;;;;;;;1.10;0.88;;;;;;;-145.06;100.00;60892.56;4890469;28;20055;-88
2021/10/28 16:53:45;;;;;;;1.27;1.00;;;;;;;-145.06;100.00;60892.56;4893061;28;20036;-88
2021/10/28 16:56:24;;;;;;;1.30;0.80;;;;;;;-145.06;100.00;60892.56;4889479;28;20024;-87
2021/10/28 16:59:04;;;;;;;0.97;0.73;;;;;;;-145.06;100.00;60892.56;4891761;28;20286;-88
2021/10/28 17:01:43;;;;;;;1.58;1.10;;;;;;;-145.06;100.00;60892.56;4897785;28;20040;-88
2021/10/28 17:04:22;;;;;;;0.95;0.80;;;;;;;-145.06;100.00;60892.56;4906253;28;20311;-88
2021/10/28 17:07:02;;;;;;;1.17;0.88;;;;;;;-145.06;100.00;60892.56;4892121;28;20593;-88
2021/10/28 17:09:40;;;;;;;1.37;1.00;;;;;;;-145.06;100.00;60892.56;4887181;28;20068;-87
2021/10/28 17:12:20;;;;;;;1.27;1.00;;;;;;;-145.06;100.00;60892.56;4886199;28;21900;-86
2021/10/28 17:14:59;;;;;;;1.60;1.05;;;;;;;15.88;100.00;60892.56;4891668;28;20024;-87
2021/10/28 17:17:38;;;;;;;1.23;1.10;;;;;;;-145.06;100.00;60892.56;4888068;28;20040;-87
2021/10/28 17:20:18;;;;;;;1.50;1.23;;;;;;;-145.06;100.00;60892.56;4883766;28;20489;-87
2021/10/28 17:22:57;;;;;;;2.60;1.70;;;;;;;-145.06;100.00;60892.56;4886347;28;20354;-87
2021/10/28 17:25:39;;;;;;;1.63;1.37;;;;;;;-145.06;100.00;60892.56;4904583;28;20068;-87
2021/10/28 17:28:18;;;;;;;2.78;1.58;;;;;;;-145.06;100.00;60892.56;4888817;28;20036;-87
2021/10/28 17:30:58;;;;;;;2.15;1.73;;;;;;;-145.06;100.00;60892.56;4890165;28;20031;-87
2021/10/28 17:33:37;;;;;;;3.13;2.00;;;;;;;187.52;100.00;60892.56;4888380;28;20035;-87
2021/10/28 17:36:16;;;;;;;2.25;1.73;;;;;;;14.89;100.00;60892.56;4888304;28;20032;-87
2021/10/28 17:38:55;;;;;;;3.23;2.10;;;;;;;-145.06;100.00;60892.56;4889262;28;20032;-87
2021/10/28 17:41:34;;;;;;;2.80;1.88;;;;;;;-145.06;100.00;60892.56;4891171;28;20032;-87
2021/10/28 17:44:13;;;;;;;3.03;1.92;;;;;;;-145.06;100.00;60892.56;4889758;28;20481;-87
2021/10/28 17:46:52;;;;;;;2.60;1.93;;;;;;;-145.06;100.00;60892.56;4886037;28;20032;-86
2021/10/28 17:49:31;;;;;;;2.38;1.77;;;;;;;-145.06;100.00;60892.56;4885659;28;20270;-87
2021/10/28 17:52:10;;;;;;;2.30;1.67;;;;;;;187.52;100.00;60892.56;4887727;28;20440;-87
2021/10/28 17:54:49;;;;;;;2.97;2.10;;;;;;;14.46;100.00;60892.56;4886987;28;20036;-88
2021/10/28 17:57:29;;;;;;;2.47;1.70;;;;;;;-145.06;100.00;60892.56;4904467;28;20032;-87
2021/10/28 18:00:09;;;;;;;2.60;1.98;;;;;;;187.52;100.00;60892.56;4886734;28;20137;-87
2021/10/28 18:02:49;;;;;;;2.80;2.08;;;;;;;-145.06;100.00;60892.56;4888899;28;20028;-88
2021/10/28 18:05:35;;;;;;;5.03;1.98;;;;;;;-145.06;100.00;60892.56;4889230;28;20020;-88
2021/10/28 18:08:14;;;;;;;3.10;2.10;;;;;;;14.50;100.00;60892.56;4904357;28;20422;-87
2021/10/28 18:10:53;;;;;;;2.67;1.80;;;;;;;-145.06;100.00;60892.56;4893891;28;20052;-87
2021/10/28 18:13:34;;;;;;;3.07;2.20;;;;;;;-145.06;100.00;60892.56;4888595;28;20044;-87
2021/10/28 18:16:13;;;;;;;2.60;1.95;;;;;;;-145.06;100.00;60892.56;4892585;28;20751;-87
2021/10/28 18:18:54;;;;;;;3.13;2.00;;;;;;;-145.06;100.00;60892.56;4896795;28;20059;-87
2021/10/28 18:21:34;;;;;;;2.63;1.83;;;;;;;-145.06;100.00;60892.56;4907245;28;20039;-86
2021/10/28 18:24:17;;;;;;;3.22;2.38;;;;;;;-145.06;100.00;60892.56;4903586;28;20465;-87
2021/10/28 18:26:56;;;;;;;3.33;2.20;;;;;;;-145.06;100.00;60892.56;4896686;28;20370;-87
2021/10/28 18:29:36;;;;;;;2.50;1.93;;;;;;;-145.06;100.00;60892.56;4893160;28;20476;-87
2021/10/28 18:32:15;;;;;;;2.88;2.20;;;;;;;-145.06;100.00;60892.56;4886936;28;20295;-88
2021/10/28 18:34:55;;;;;;;3.20;2.47;;;;;;;-145.06;100.00;60892.56;4895631;28;20099;-86
2021/10/28 18:37:34;;;;;;;3.60;2.22;;;;;;;-145.06;100.00;60892.56;4887111;28;20254;-87
2021/10/28 18:40:14;;;;;;;3.25;2.03;;;;;;;-145.06;100.00;60892.56;4906946;28;20056;-88
2021/10/28 18:42:53;;;;;;;2.92;2.35;;;;;;;14.58;100.00;60892.56;4900193;28;20028;-87
2021/10/28 18:45:32;;;;;;;3.13;2.22;;;;;;;-145.06;100.00;60892.56;4903216;28;20036;-87
2021/10/28 18:48:13;;;;;;;2.60;2.10;;;;;;;-145.06;100.00;60892.56;4894648;28;20031;-87
2021/10/28 18:50:53;;;;;;;3.15;2.17;;;;;;;-145.06;100.00;60892.56;4899149;28;20056;-86
2021/10/28 18:53:38;;;;;;;2.72;1.75;;;;;;;-145.06;100.00;60892.56;4911289;28;20473;-87
2021/10/28 18:56:18;;;;;;;2.20;1.70;;;;;;;13.28;100.00;60892.56;4895148;28;20028;-86
2021/10/28 18:58:57;;;;;;;2.60;2.05;;;;;;;-145.06;100.00;60892.56;4914432;28;20051;-87
2021/10/28 19:01:37;;;;;;;2.53;1.85;;;;;;;-145.06;100.00;60892.56;4896048;28;20425;-86
2021/10/28 19:04:17;;;;;;;;;;;;;;;-145.06;100.00;60892.56;4899309;28;20024;-87
2021/10/28 19:06:56;;;;;;;;;;;;;;;-145.06;100.00;60892.56;4898633;28;19911;-87
2021/10/28 19:09:35;;;;;;;2.77;1.53;;;;;;;-145.06;100.00;60892.56;4913428;28;19936;-87
2021/10/28 19:12:14;;;;;;;2.83;1.90;;;;;;;21.08;100.00;60892.56;4895377;28;20274;-87
2021/10/28 19:14:54;;;;;;;3.75;2.28;;;;;;;-145.06;100.00;60892.56;4892392;28;20466;-86
2021/10/28 19:17:33;;;;;;;2.33;1.90;;;;;;;-145.06;100.00;60892.56;4894712;28;20425;-87
2021/10/28 19:20:13;;;;;;;3.33;2.10;;;;;;;-145.06;100.00;60892.56;4901225;28;20058;-87
2021/10/28 19:22:54;;;;;;;3.20;2.00;;;;;;;15.88;100.00;60892.56;4910710;28;20477;-87
2021/10/28 19:25:34;;;;;;;2.45;1.75;;;;;;;-145.06;100.00;60892.56;4896993;28;20219;-87
2021/10/28 19:28:13;;;;;;;;;;;;;;;-145.06;100.00;60892.56;4912165;28;20503;-87
2021/10/28 19:31:05;;;;;;;2.38;1.80;;;;;;;-145.06;100.00;60892.56;4891936;28;19912;-86
2021/10/28 19:33:58;;;;;;;3.10;2.08;;;;;;;-145.06;100.00;60892.56;4898074;28;20032;-87
2021/10/28 19:36:45;;;;;;;2.38;1.95;;;;;;;-145.06;100.00;60892.56;4895811;28;20051;-87
2021/10/28 19:47:56;;;;;;;2.40;1.90;;;;;;;-145.06;100.00;60892.56;4911106;28;20032;-87
2021/10/28 19:50:35;;;;;;;;;;;;;;;-145.06;100.00;60892.56;4891311;28;20063;-87
2021/10/28 19:53:15;;;;;;;2.78;1.70;;;;;;;-145.06;100.00;60892.56;4888666;28;20381;-87
2021/10/28 19:55:56;;;;;;;2.15;1.45;;;;;;;-145.06;100.00;60892.56;4897018;28;20461;-87
2021/10/28 19:58:38;;;;;;;2.67;1.70;;;;;;;-145.06;100.00;60892.56;4911564;28;20032;-88
2021/10/28 20:06:49;;;;;;;2.20;1.75;;;;;;;-145.06;100.00;60892.56;4909018;28;20027;-88
2021/10/28 20:21:10;;;;;;;3.65;2.65;;;;;;;-145.06;100.00;60892.56;4917513;28;20023;-86
2021/10/28 20:23:50;;;;;;;3.70;2.55;;;;;;;11.89;100.00;60892.56;4898043;28;20028;-88
2021/10/28 20:26:29;;;;;;;3.13;2.60;;;;;;;11.87;100.00;60892.56;4896424;28;20044;-87
2021/10/28 20:29:08;;;;;;;3.40;2.63;;;;;;;-145.06;100.00;60892.56;4910963;28;20028;-86
2021/10/28 20:31:47;;;;;;;4.05;2.88;;;;;;;15.88;100.00;60892.56;4898345;28;20343;-88
2021/10/28 20:34:32;;;;;;;5.10;3.47;;;;;;;15.88;100.00;60892.56;4893568;28;20035;-86
2021/10/28 20:37:12;;;;;;;4.57;3.30;;;;;;;-145.06;100.00;60892.56;4894739;28;20027;-86
2021/10/28 20:39:50;;;;;;;3.88;2.88;;;;;;;-145.06;100.00;60892.56;4910915;28;20040;-86
2021/10/28 20:42:40;;;;;;;3.20;2.50;;;;;;;-145.06;100.00;60892.56;4902945;28;20028;-88
2021/10/28 20:45:26;;;;;;;3.15;2.30;;;;;;;-145.06;100.00;60892.56;4897595;28;20406;-86
2021/10/28 20:48:05;;;;;;;3.17;2.47;;;;;;;-145.06;100.00;60892.56;4894146;28;20342;-86
2021/10/28 20:50:44;;;;;;;3.70;2.53;;;;;;;-145.06;100.00;60892.56;4895454;28;20052;-87
2021/10/28 20:53:24;;;;;;;3.43;2.50;;;;;;;11.72;100.00;60892.56;4894157;28;20067;-86
2021/10/28 20:56:04;;;;;;;4.20;2.70;;;;;;;-145.06;100.00;60892.56;4898439;28;20031;-85
2021/10/28 20:58:43;;;;;;;3.40;2.40;;;;;;;-145.06;100.00;60892.56;4893529;28;20323;-87
2021/10/28 21:01:23;;;;;;;3.83;2.70;;;;;;;-145.06;100.00;60892.56;4901696;28;20048;-86
2021/10/28 21:04:02;;;;;;;;;;;;;;;-145.06;100.00;60892.56;4897061;28;20023;-87
2021/10/28 21:06:41;;;;;;;3.37;2.20;;;;;;;-145.06;100.00;60892.56;4896985;28;20420;-86
2021/10/28 21:09:20;;;;;;;3.88;2.53;;;;;;;-145.06;100.00;60892.56;4901572;28;20256;-87
2021/10/28 21:11:59;;;;;;;3.05;2.35;;;;;;;-145.06;100.00;60892.56;4895186;28;20445;-87
2021/10/28 21:14:38;;;;;;;3.13;2.40;;;;;;;-145.06;100.00;60892.56;4912055;28;20028;-87
2021/10/28 21:17:18;;;;;;;3.03;2.25;;;;;;;-145.06;100.00;60892.56;4911721;28;20254;-86
2021/10/28 21:19:57;;;;;;;3.17;2.00;;;;;;;-145.06;100.00;60892.56;4911802;28;20485;-87